Time;durP1;ratioP1;P1;durP2;ratioP2;P2;SDS_P1;SDS_P2;PMS_P1;PMS_P2;Temp;Humidity;BMP_temperature;BMP_pressure;BME280_temperature;BME280_humidity;BME280_pressure;Samples;Min_cycle;Max_cycle;Signal;HPM_P1;HPM_P2
2023/05/22 00:01:48;;;;;;;6.45;2.88;;;16.70;99.90;;;;;;5012654;28;20025;-70
2023/05/22 00:04:19;;;;;;;7.93;2.97;;;16.80;99.90;;;;;;5012140;28;20495;-69
2023/05/22 00:06:47;;;;;;;5.07;2.60;;;16.80;99.90;;;;;;5012086;28;20171;-71
2023/05/22 00:09:14;;;;;;;7.72;3.38;;;16.80;99.90;;;;;;5012210;28;20415;-70
2023/05/22 00:11:40;;;;;;;5.82;2.92;;;16.70;99.90;;;;;;5012365;28;20038;-71
2023/05/22 00:14:06;;;;;;;7.35;3.15;;;16.70;99.90;;;;;;5012117;28;20060;-70
2023/05/22 00:16:32;;;;;;;5.82;2.97;;;16.80;99.90;;;;;;5012249;28;20021;-71
2023/05/22 00:19:00;;;;;;;4.75;2.83;;;16.80;99.90;;;;;;5011863;28;20441;-70
2023/05/22 00:21:26;;;;;;;5.70;2.63;;;16.80;99.90;;;;;;4994400;28;20030;-70
2023/05/22 00:23:52;;;;;;;5.45;2.85;;;16.70;99.90;;;;;;5012400;28;20406;-71
2023/05/22 00:26:22;;;;;;;4.85;2.58;;;16.60;99.90;;;;;;4994367;28;20069;-71
2023/05/22 00:28:48;;;;;;;5.85;2.80;;;16.60;99.90;;;;;;5012093;28;20131;-69
2023/05/22 00:31:14;;;;;;;5.70;3.10;;;16.60;99.90;;;;;;5011790;28;20061;-70
2023/05/22 00:33:40;;;;;;;4.72;3.00;;;16.60;99.90;;;;;;5011673;28;20038;-71
2023/05/22 00:36:06;;;;;;;5.03;2.83;;;16.60;99.90;;;;;;5011917;28;20077;-70
2023/05/22 00:38:35;;;;;;;4.95;2.60;;;16.40;99.90;;;;;;4994109;28;20064;-70
2023/05/22 00:41:02;;;;;;;7.82;3.05;;;16.50;99.90;;;;;;5012322;28;20053;-70
2023/05/22 00:43:28;;;;;;;5.80;3.00;;;16.50;99.90;;;;;;5012065;28;20053;-71
2023/05/22 00:45:55;;;;;;;6.50;2.90;;;16.50;99.90;;;;;;4994216;28;20454;-69
2023/05/22 00:48:22;;;;;;;6.85;2.97;;;16.60;99.90;;;;;;5011111;28;20075;-71
2023/05/22 00:50:53;;;;;;;6.05;3.42;;;16.50;99.90;;;;;;5011859;28;20026;-70
2023/05/22 00:53:20;;;;;;;6.00;3.08;;;16.50;99.90;;;;;;4994063;28;20038;-71
2023/05/22 00:55:47;;;;;;;6.30;3.22;;;16.50;99.90;;;;;;4994151;28;20121;-69
2023/05/22 00:58:16;;;;;;;7.32;3.15;;;16.50;99.90;;;;;;5011888;28;20132;-71
2023/05/22 01:00:43;;;;;;;6.32;3.10;;;16.60;99.90;;;;;;5011691;28;20022;-71
2023/05/22 01:03:10;;;;;;;6.38;3.22;;;16.60;99.90;;;;;;5011477;28;20021;-70
2023/05/22 01:05:36;;;;;;;;;;;16.70;99.90;;;;;;5011762;28;20058;-71
2023/05/22 01:08:03;;;;;;;4.63;2.95;;;16.70;99.90;;;;;;5011805;28;19965;-71
2023/05/22 01:10:31;;;;;;;5.55;3.28;;;16.70;99.90;;;;;;5011610;28;20022;-71
2023/05/22 01:13:19;;;;;;;5.43;3.15;;;16.70;99.90;;;;;;4993601;28;20045;-71
2023/05/22 01:16:14;;;;;;;6.82;3.00;;;16.60;99.90;;;;;;5011635;28;20474;-70
2023/05/22 01:19:02;;;;;;;5.07;2.85;;;16.60;99.90;;;;;;4986240;28;20034;-71
2023/05/22 01:21:59;;;;;;;5.15;2.95;;;16.60;99.90;;;;;;5011131;28;20030;-71
2023/05/22 01:24:46;;;;;;;4.72;2.75;;;16.60;99.90;;;;;;5003196;28;20034;-70
2023/05/22 01:27:47;;;;;;;5.72;2.92;;;16.50;99.90;;;;;;5011770;28;20029;-71
2023/05/22 01:30:43;;;;;;;6.63;3.03;;;16.50;99.90;;;;;;5011151;28;20086;-71
2023/05/22 01:33:13;;;;;;;6.00;2.90;;;16.50;99.90;;;;;;5011026;28;20208;-68
2023/05/22 01:35:40;;;;;;;5.10;3.33;;;16.50;99.90;;;;;;5010885;28;20021;-68
2023/05/22 01:38:07;;;;;;;5.07;2.88;;;16.40;99.90;;;;;;5011318;28;20030;-71
2023/05/22 01:40:34;;;;;;;7.60;3.50;;;16.50;99.90;;;;;;5011143;28;20018;-71
2023/05/22 01:43:00;;;;;;;6.55;3.40;;;16.50;99.90;;;;;;5011151;28;20128;-70
2023/05/22 01:45:27;;;;;;;7.13;3.70;;;16.50;99.90;;;;;;5010638;28;20097;-69
2023/05/22 01:47:53;;;;;;;5.30;3.55;;;16.50;99.90;;;;;;5010379;28;20127;-69
2023/05/22 01:50:19;;;;;;;8.02;3.85;;;16.40;99.90;;;;;;5010903;28;20022;-70
2023/05/22 01:52:45;;;;;;;;;;;16.40;99.90;;;;;;5011126;28;20080;-70
2023/05/22 01:55:19;;;;;;;5.05;3.50;;;16.40;99.90;;;;;;4993033;28;19909;-69
2023/05/22 01:58:20;;;;;;;7.07;3.97;;;16.50;99.90;;;;;;4992843;28;20098;-69
2023/05/22 02:00:46;;;;;;;7.05;3.70;;;16.50;99.90;;;;;;5014063;28;20032;-69
2023/05/22 02:03:21;;;;;;;5.47;4.00;;;16.60;99.90;;;;;;5014356;28;20072;-69
2023/05/22 02:05:52;;;;;;;6.28;3.53;;;16.60;99.90;;;;;;5014501;28;20086;-70
2023/05/22 02:08:20;;;;;;;7.57;4.15;;;16.60;99.90;;;;;;4996747;28;20125;-69
2023/05/22 02:10:49;;;;;;;7.82;3.78;;;16.70;99.90;;;;;;5014631;28;20026;-70
2023/05/22 02:13:15;;;;;;;6.45;3.92;;;16.70;99.90;;;;;;5014236;28;20090;-69
2023/05/22 02:15:44;;;;;;;7.88;3.60;;;16.70;99.90;;;;;;5014743;28;20073;-69
2023/05/22 02:18:13;;;;;;;6.90;3.38;;;16.80;99.90;;;;;;5014221;28;20056;-70
2023/05/22 02:20:42;;;;;;;8.77;3.42;;;16.80;99.90;;;;;;5014257;28;20030;-70
2023/05/22 02:23:08;;;;;;;7.20;3.40;;;16.70;99.90;;;;;;5014371;28;20447;-69
2023/05/22 02:25:34;;;;;;;6.15;3.30;;;16.70;99.90;;;;;;4996448;28;20034;-70
2023/05/22 02:28:00;;;;;;;6.82;3.72;;;16.60;99.90;;;;;;5013984;28;20181;-70
2023/05/22 02:30:26;;;;;;;5.13;2.97;;;16.60;99.90;;;;;;5013956;28;20049;-69
2023/05/22 02:32:53;;;;;;;7.75;3.58;;;16.60;99.90;;;;;;5013345;28;20074;-70
2023/05/22 02:35:19;;;;;;;8.50;3.50;;;16.60;99.90;;;;;;5013604;28;20026;-70
2023/05/22 02:37:45;;;;;;;7.05;3.40;;;16.50;99.90;;;;;;5013603;28;20383;-69
2023/05/22 02:40:11;;;;;;;7.15;2.90;;;16.50;99.90;;;;;;5013811;28;20033;-70
2023/05/22 02:42:37;;;;;;;7.50;3.00;;;16.60;99.90;;;;;;4996190;28;20022;-70
2023/05/22 02:45:04;;;;;;;6.32;3.00;;;16.60;99.90;;;;;;4996305;28;20025;-69
2023/05/22 02:47:30;;;;;;;6.40;3.20;;;16.50;99.90;;;;;;5013511;28;20026;-69
2023/05/22 02:49:58;;;;;;;6.95;3.30;;;16.60;99.90;;;;;;5012973;28;20022;-70
2023/05/22 02:52:27;;;;;;;8.18;4.13;;;16.50;99.90;;;;;;5013473;28;20049;-67
2023/05/22 02:54:53;;;;;;;9.27;3.47;;;16.40;99.90;;;;;;5013442;28;20029;-70
2023/05/22 02:57:20;;;;;;;6.43;3.30;;;16.30;99.90;;;;;;5014140;28;20030;-69
2023/05/22 02:59:46;;;;;;;4.40;3.20;;;16.30;99.90;;;;;;5014049;28;20025;-70
2023/05/22 03:02:12;;;;;;;5.97;3.60;;;16.30;99.90;;;;;;5014049;28;20026;-70
2023/05/22 03:04:39;;;;;;;7.38;3.15;;;16.20;99.90;;;;;;5013761;28;20026;-70
2023/05/22 03:07:06;;;;;;;;;;;16.20;99.90;;;;;;5014137;28;20355;-68
2023/05/22 03:09:31;;;;;;;;;;;16.10;99.90;;;;;;5014423;28;19917;-70
2023/05/22 03:11:58;;;;;;;5.53;3.25;;;16.00;99.90;;;;;;5013624;28;19909;-70
2023/05/22 03:14:24;;;;;;;7.60;3.88;;;16.00;99.90;;;;;;5014048;28;20022;-69
2023/05/22 03:16:50;;;;;;;8.10;3.67;;;16.00;99.90;;;;;;5013639;28;20466;-69
2023/05/22 03:19:16;;;;;;;8.50;4.20;;;16.00;99.90;;;;;;5013570;28;20029;-70
2023/05/22 03:21:47;;;;;;;9.00;4.18;;;16.10;99.90;;;;;;5014057;28;20033;-70
2023/05/22 03:24:13;;;;;;;7.80;4.38;;;16.10;99.90;;;;;;5014075;28;20018;-69
2023/05/22 03:26:39;;;;;;;8.18;4.40;;;16.00;99.90;;;;;;5014770;28;20030;-70
2023/05/22 03:29:05;;;;;;;10.05;4.65;;;16.00;99.90;;;;;;5015277;28;20034;-70
2023/05/22 03:31:32;;;;;;;10.57;4.57;;;15.90;99.90;;;;;;5014548;28;20026;-68
2023/05/22 03:33:58;;;;;;;9.23;5.35;;;15.80;99.90;;;;;;5014688;28;20096;-68
2023/05/22 03:36:25;;;;;;;8.32;4.25;;;15.70;99.90;;;;;;5014782;28;20030;-70
2023/05/22 03:38:51;;;;;;;7.05;4.38;;;15.70;99.90;;;;;;5015047;28;20025;-69
2023/05/22 03:41:18;;;;;;;7.18;4.20;;;15.80;99.90;;;;;;5014176;28;20026;-68
2023/05/22 03:43:45;;;;;;;7.10;3.75;;;15.90;99.90;;;;;;5014161;28;20097;-69
2023/05/22 03:46:11;;;;;;;7.22;3.95;;;15.90;99.90;;;;;;5014157;28;20109;-70
2023/05/22 03:48:38;;;;;;;7.95;3.67;;;16.00;99.90;;;;;;5013832;28;20057;-69
2023/05/22 03:51:04;;;;;;;8.63;4.18;;;16.00;99.90;;;;;;5014164;28;20030;-69
2023/05/22 03:53:31;;;;;;;10.63;4.03;;;16.00;99.90;;;;;;4996349;28;20190;-70
2023/05/22 03:55:57;;;;;;;6.93;4.22;;;16.00;99.90;;;;;;5014510;28;20057;-69
2023/05/22 03:58:26;;;;;;;7.05;4.15;;;15.90;99.90;;;;;;5013946;28;20069;-70
2023/05/22 04:00:59;;;;;;;6.38;4.45;;;16.00;99.90;;;;;;5013870;28;20022;-69
2023/05/22 04:03:26;;;;;;;6.47;4.03;;;16.00;99.90;;;;;;5013689;28;20065;-68
2023/05/22 04:05:52;;;;;;;;;;;16.10;99.90;;;;;;5014369;28;20045;-69
2023/05/22 04:08:19;;;;;;;9.30;4.63;;;16.10;99.90;;;;;;5014056;28;19917;-70
2023/05/22 04:10:48;;;;;;;8.30;4.68;;;16.10;99.90;;;;;;5013697;28;20474;-69
2023/05/22 04:13:17;;;;;;;7.90;4.40;;;16.20;99.90;;;;;;5013501;28;20065;-70
2023/05/22 04:15:46;;;;;;;11.32;4.43;;;16.20;99.90;;;;;;5013926;28;20450;-70
2023/05/22 04:18:13;;;;;;;9.45;4.53;;;16.30;99.90;;;;;;5013380;28;20037;-69
2023/05/22 04:20:39;;;;;;;;;;;16.30;99.90;;;;;;5015161;28;20026;-70
2023/05/22 04:23:06;;;;;;;10.70;4.40;;;16.40;99.90;;;;;;5013671;28;19972;-69
2023/05/22 04:25:33;;;;;;;8.07;4.47;;;16.40;99.90;;;;;;5014688;28;20025;-70
2023/05/22 04:28:02;;;;;;;9.65;4.38;;;16.40;99.90;;;;;;5014342;28;20033;-68
2023/05/22 04:30:36;;;;;;;7.60;3.95;;;16.40;99.90;;;;;;5018239;28;20096;-69
2023/05/22 04:33:04;;;;;;;8.52;4.20;;;16.40;99.90;;;;;;5033022;28;20046;-69
2023/05/22 04:35:30;;;;;;;8.48;4.30;;;16.40;99.90;;;;;;5033645;28;20025;-69
2023/05/22 04:38:00;;;;;;;11.52;4.60;;;16.40;99.90;;;;;;5033707;28;20037;-69
2023/05/22 04:40:29;;;;;;;9.40;4.22;;;16.40;99.90;;;;;;5033361;28;20017;-68
2023/05/22 04:42:58;;;;;;;8.68;4.60;;;16.40;99.90;;;;;;5016795;28;20397;-69
2023/05/22 04:45:25;;;;;;;8.38;4.03;;;16.50;99.90;;;;;;5015252;28;20009;-70
2023/05/22 04:47:52;;;;;;;6.68;4.70;;;16.50;99.90;;;;;;5014020;28;20533;-70
2023/05/22 04:50:19;;;;;;;10.07;4.78;;;16.50;99.90;;;;;;4996387;28;20037;-71
2023/05/22 04:52:46;;;;;;;9.20;4.93;;;16.50;99.90;;;;;;5013554;28;20048;-71
2023/05/22 04:55:12;;;;;;;9.88;4.65;;;16.40;99.90;;;;;;5013678;28;20089;-71
2023/05/22 04:57:39;;;;;;;9.75;4.45;;;16.40;99.90;;;;;;5030205;28;20026;-72
2023/05/22 05:00:06;;;;;;;8.93;4.25;;;16.40;99.90;;;;;;5025460;28;20072;-70
2023/05/22 05:02:34;;;;;;;7.85;4.30;;;16.60;99.90;;;;;;5013399;28;20081;-69
2023/05/22 05:05:00;;;;;;;6.90;4.10;;;16.60;99.90;;;;;;5012817;28;20030;-69
2023/05/22 05:07:26;;;;;;;11.35;4.47;;;16.70;99.90;;;;;;5012399;28;20042;-71
2023/05/22 05:09:52;;;;;;;11.07;4.43;;;16.80;99.90;;;;;;5011496;28;20056;-72
2023/05/22 05:12:18;;;;;;;6.72;4.15;;;16.80;99.90;;;;;;5010809;28;20030;-69
2023/05/22 05:14:45;;;;;;;8.98;4.68;;;17.00;99.90;;;;;;5011915;28;20059;-71
2023/05/22 05:17:11;;;;;;;8.40;4.05;;;17.10;99.90;;;;;;4994219;28;20018;-69
2023/05/22 05:19:37;;;;;;;7.28;3.85;;;17.00;99.90;;;;;;5011370;28;20041;-71
2023/05/22 05:22:03;;;;;;;9.80;3.80;;;17.20;99.90;;;;;;5012979;28;20026;-69
2023/05/22 05:24:30;;;;;;;7.28;4.13;;;17.50;99.90;;;;;;5012510;28;20073;-69
2023/05/22 05:26:58;;;;;;;7.85;3.97;;;17.70;99.90;;;;;;5012696;28;20057;-67
2023/05/22 05:29:24;;;;;;;9.13;3.83;;;17.90;99.90;;;;;;5011771;28;20105;-68
2023/05/22 05:31:50;;;;;;;7.38;4.50;;;18.00;99.90;;;;;;5011367;28;20045;-69
2023/05/22 05:34:16;;;;;;;11.02;5.13;;;18.30;99.90;;;;;;5011786;28;20029;-67
2023/05/22 05:36:43;;;;;;;8.48;3.70;;;18.40;99.90;;;;;;5012078;28;20455;-79
2023/05/22 05:39:09;;;;;;;;;;;18.60;99.90;;;;;;5012937;28;20022;-82
2023/05/22 05:41:35;;;;;;;9.38;3.55;;;18.60;99.90;;;;;;5010354;28;19909;-74
2023/05/22 05:44:01;;;;;;;8.70;3.30;;;18.80;99.90;;;;;;4993955;28;20033;-71
2023/05/22 05:46:27;;;;;;;13.20;3.88;;;19.00;99.90;;;;;;4994245;28;20418;-71
2023/05/22 05:48:53;;;;;;;6.30;3.65;;;19.10;99.90;;;;;;5011672;28;20030;-72
2023/05/22 05:51:20;;;;;;;10.13;3.70;;;19.10;99.90;;;;;;5011823;28;20022;-72
2023/05/22 05:53:47;;;;;;;7.72;3.30;;;19.30;99.90;;;;;;5011015;28;20037;-72
2023/05/22 05:56:13;;;;;;;7.00;3.00;;;19.60;99.90;;;;;;5010968;28;20026;-71
2023/05/22 05:58:39;;;;;;;;;;;19.70;99.90;;;;;;5011504;28;20092;-71
2023/05/22 06:01:05;;;;;;;8.95;3.95;;;19.70;99.90;;;;;;5002634;28;20333;-70
2023/05/22 06:03:31;;;;;;;6.50;3.45;;;19.90;99.90;;;;;;5010583;28;20462;-70
2023/05/22 06:05:58;;;;;;;6.22;3.40;;;20.00;99.90;;;;;;5011197;28;20445;-71
2023/05/22 06:08:27;;;;;;;7.90;3.20;;;20.50;99.90;;;;;;5011271;28;20037;-72
2023/05/22 06:10:53;;;;;;;5.85;2.83;;;21.10;99.90;;;;;;5011815;28;20029;-72
2023/05/22 06:13:19;;;;;;;8.55;2.75;;;21.50;99.90;;;;;;5011191;28;20034;-71
2023/05/22 06:15:45;;;;;;;11.25;3.00;;;21.70;99.90;;;;;;5011200;28;20080;-71
2023/05/22 06:18:12;;;;;;;11.68;3.05;;;21.60;99.90;;;;;;5011503;28;20108;-72
2023/05/22 06:20:38;;;;;;;11.10;3.28;;;21.70;99.90;;;;;;5011557;28;20030;-72
2023/05/22 06:23:04;;;;;;;6.15;2.78;;;21.30;99.90;;;;;;4993811;28;20042;-71
2023/05/22 06:25:30;;;;;;;7.22;2.83;;;21.40;99.90;;;;;;5011440;28;20026;-72
2023/05/22 06:27:56;;;;;;;8.63;3.05;;;21.10;99.90;;;;;;5012464;28;20534;-70
2023/05/22 06:30:22;;;;;;;9.80;3.70;;;21.00;99.90;;;;;;5011817;28;20058;-71
2023/05/22 06:32:48;;;;;;;6.43;2.95;;;21.30;99.90;;;;;;5012038;28;20030;-70
2023/05/22 06:35:14;;;;;;;8.90;2.70;;;21.50;99.90;;;;;;5011210;28;20029;-71
2023/05/22 06:37:41;;;;;;;8.80;3.08;;;21.40;99.90;;;;;;5011687;28;20033;-71
2023/05/22 06:40:09;;;;;;;6.63;3.20;;;21.50;99.90;;;;;;5011895;28;20026;-70
2023/05/22 06:42:35;;;;;;;5.43;2.90;;;21.40;99.90;;;;;;5011129;28;20029;-68
2023/05/22 06:45:01;;;;;;;7.15;2.90;;;21.50;99.90;;;;;;5011487;28;20097;-69
2023/05/22 06:47:27;;;;;;;9.05;3.45;;;21.80;99.90;;;;;;5014491;28;20097;-72
2023/05/22 06:49:53;;;;;;;10.43;3.30;;;22.20;99.90;;;;;;5014874;28;20026;-70
2023/05/22 06:52:19;;;;;;;11.40;3.00;;;22.40;99.90;;;;;;5015396;28;20068;-71
2023/05/22 06:54:45;;;;;;;13.35;2.80;;;22.60;99.90;;;;;;5014913;28;20061;-72
2023/05/22 06:57:11;;;;;;;10.80;3.17;;;23.10;99.90;;;;;;5015390;28;20026;-71
2023/05/22 06:59:37;;;;;;;8.13;2.92;;;23.80;99.90;;;;;;5015107;28;20493;-70
2023/05/22 07:02:03;;;;;;;8.75;2.63;;;23.90;99.90;;;;;;4997130;28;20022;-69
2023/05/22 07:04:30;;;;;;;8.10;2.70;;;24.50;99.90;;;;;;5014930;28;20058;-71
2023/05/22 07:06:56;;;;;;;5.95;3.00;;;24.30;99.90;;;;;;4996855;28;20049;-72
2023/05/22 07:09:22;;;;;;;10.07;3.25;;;23.70;99.90;;;;;;5015213;28;20374;-70
2023/05/22 07:11:48;;;;;;;11.55;3.58;;;23.40;99.90;;;;;;5014707;28;20521;-70
2023/05/22 07:14:14;;;;;;;7.10;3.33;;;23.70;99.90;;;;;;5014870;28;20041;-71
2023/05/22 07:16:40;;;;;;;15.07;9.05;;;24.40;99.90;;;;;;5015117;28;20022;-71
2023/05/22 07:19:07;;;;;;;7.32;3.10;;;24.60;99.90;;;;;;5006488;28;20433;-70
2023/05/22 07:21:39;;;;;;;10.20;3.30;;;24.20;99.90;;;;;;5014734;28;20029;-73
2023/05/22 07:24:08;;;;;;;11.52;3.15;;;23.80;99.90;;;;;;4997044;28;20390;-71
2023/05/22 07:26:51;;;;;;;;;;;23.80;99.90;;;;;;5013361;28;20466;-70
2023/05/22 07:29:18;;;;;;;15.25;4.88;;;23.60;99.90;;;;;;5014044;28;20008;-71
2023/05/22 07:31:44;;;;;;;15.20;7.57;;;23.90;99.90;;;;;;4996262;28;20037;-71
2023/05/22 07:34:10;;;;;;;11.23;3.33;;;23.70;99.90;;;;;;5014217;28;20022;-71
2023/05/22 07:36:36;;;;;;;6.57;3.00;;;23.50;99.90;;;;;;5014430;28;20026;-70
2023/05/22 07:39:04;;;;;;;10.40;3.35;;;23.40;99.90;;;;;;5014063;28;20038;-70
2023/05/22 07:41:30;;;;;;;13.75;3.35;;;23.60;99.90;;;;;;5013918;28;20021;-71
2023/05/22 07:43:56;;;;;;;9.05;3.55;;;23.50;99.90;;;;;;5014280;28;20033;-71
2023/05/22 07:46:22;;;;;;;9.50;3.20;;;23.30;99.90;;;;;;5013747;28;20049;-71
2023/05/22 07:48:48;;;;;;;11.95;3.53;;;22.80;99.90;;;;;;5013781;28;20026;-70
2023/05/22 07:51:14;;;;;;;13.00;3.53;;;22.70;99.90;;;;;;5014173;28;20026;-70
2023/05/22 07:53:41;;;;;;;11.15;3.22;;;22.20;99.90;;;;;;5013817;28;20128;-69
2023/05/22 07:56:07;;;;;;;12.13;3.80;;;22.00;99.90;;;;;;5013793;28;20101;-70
2023/05/22 07:58:33;;;;;;;9.60;3.55;;;22.30;99.90;;;;;;5013535;28;20029;-70
2023/05/22 08:01:00;;;;;;;8.02;3.55;;;22.50;99.90;;;;;;5013444;28;20355;-70
2023/05/22 08:03:26;;;;;;;12.85;4.03;;;22.20;99.90;;;;;;4995602;28;20030;-71
2023/05/22 08:05:53;;;;;;;7.53;3.70;;;22.40;99.90;;;;;;4995509;28;20050;-71
2023/05/22 08:08:19;;;;;;;9.10;3.70;;;22.40;99.90;;;;;;5012710;28;20116;-71
2023/05/22 08:10:45;;;;;;;11.63;4.10;;;22.50;99.90;;;;;;5012167;28;20026;-71
2023/05/22 08:13:11;;;;;;;20.92;4.20;;;22.70;99.90;;;;;;5012966;28;20060;-71
2023/05/22 08:15:37;;;;;;;;;;;23.00;99.90;;;;;;5013401;28;20037;-70
2023/05/22 08:18:03;;;;;;;12.48;4.00;;;23.10;99.90;;;;;;4995643;28;20008;-71
2023/05/22 08:20:29;;;;;;;11.55;3.53;;;23.90;99.90;;;;;;5013148;28;20063;-72
2023/05/22 08:22:56;;;;;;;6.38;3.00;;;24.30;99.90;;;;;;5013931;28;20351;-69
2023/05/22 08:25:22;;;;;;;10.02;3.38;;;23.70;99.90;;;;;;4995744;28;20026;-71
2023/05/22 08:27:48;;;;;;;8.93;3.25;;;23.80;99.90;;;;;;5013328;28;20025;-71
2023/05/22 08:30:14;;;;;;;9.60;3.25;;;23.90;99.90;;;;;;5013539;28;20093;-71
2023/05/22 08:32:40;;;;;;;7.30;3.15;;;24.00;99.90;;;;;;5013484;28;20037;-71
2023/05/22 08:35:06;;;;;;;7.57;2.95;;;23.90;99.90;;;;;;5013050;28;20026;-71
2023/05/22 08:37:32;;;;;;;9.43;3.28;;;24.30;99.90;;;;;;5013219;28;20108;-70
2023/05/22 08:39:58;;;;;;;10.13;3.08;;;23.90;99.90;;;;;;5013617;28;20036;-71
2023/05/22 08:42:24;;;;;;;12.60;3.45;;;23.50;99.90;;;;;;5013397;28;20476;-71
2023/05/22 08:44:51;;;;;;;16.02;3.35;;;23.60;99.90;;;;;;4995655;28;20089;-71
2023/05/22 08:47:19;;;;;;;12.50;3.70;;;23.70;99.90;;;;;;5013416;28;20320;-69
2023/05/22 08:49:48;;;;;;;11.32;3.17;;;23.90;99.90;;;;;;5013203;28;20117;-70
2023/05/22 08:52:25;;;;;;;12.40;3.13;;;24.00;99.90;;;;;;5013072;28;20054;-71
2023/05/22 08:54:54;;;;;;;7.72;2.92;;;23.90;99.90;;;;;;5011996;28;20048;-70
2023/05/22 08:57:22;;;;;;;7.63;3.05;;;23.70;99.90;;;;;;5024336;28;20454;-71
2023/05/22 08:59:49;;;;;;;9.98;3.30;;;23.30;99.90;;;;;;5016427;28;20025;-72
2023/05/22 09:02:16;;;;;;;10.52;3.92;;;23.60;99.90;;;;;;5014240;28;20030;-70
2023/05/22 09:04:42;;;;;;;9.82;3.85;;;24.20;99.90;;;;;;5019200;28;20022;-70
2023/05/22 09:07:09;;;;;;;7.20;3.50;;;24.40;99.90;;;;;;5011955;28;20443;-71
2023/05/22 09:09:41;;;;;;;9.98;3.60;;;24.30;99.90;;;;;;5011588;28;20426;-71
2023/05/22 09:12:08;;;;;;;9.55;3.42;;;24.20;99.90;;;;;;5011668;28;20129;-71
2023/05/22 09:14:40;;;;;;;7.78;3.30;;;24.60;99.90;;;;;;4993861;28;20224;-71
2023/05/22 09:17:09;;;;;;;11.23;3.20;;;24.70;99.90;;;;;;5014695;28;20048;-71
2023/05/22 09:19:36;;;;;;;10.82;3.30;;;24.40;99.90;;;;;;5030940;28;20041;-71
2023/05/22 09:22:03;;;;;;;9.23;3.33;;;23.60;99.90;;;;;;5031657;28;20423;-71
2023/05/22 09:24:30;;;;;;;10.93;3.35;;;23.70;99.90;;;;;;5031423;28;20017;-70
2023/05/22 09:26:56;;;;;;;6.18;2.92;;;23.90;99.90;;;;;;5031653;28;20462;-71
2023/05/22 09:29:22;;;;;;;6.55;3.15;;;24.30;99.90;;;;;;5030408;28;20022;-70
2023/05/22 09:31:48;;;;;;;7.20;3.00;;;24.20;99.90;;;;;;5011576;28;20128;-71
2023/05/22 09:34:14;;;;;;;8.45;3.13;;;23.90;99.90;;;;;;5011573;28;20104;-70
2023/05/22 09:36:41;;;;;;;8.63;3.58;;;23.60;99.90;;;;;;5011779;28;20022;-70
2023/05/22 09:39:07;;;;;;;10.20;3.30;;;23.10;99.90;;;;;;5011701;28;20111;-69
2023/05/22 09:41:36;;;;;;;7.88;3.30;;;23.00;99.90;;;;;;4993778;28;20109;-70
2023/05/22 09:44:11;;;;;;;11.35;3.42;;;22.70;99.90;;;;;;4993750;28;20126;-70
2023/05/22 09:46:45;;;;;;;12.38;4.10;;;22.70;99.90;;;;;;5012157;28;20370;-70
2023/05/22 09:49:12;;;;;;;12.95;3.60;;;22.30;99.90;;;;;;5012830;28;20422;-69
2023/05/22 09:51:41;;;;;;;11.50;4.00;;;22.30;99.90;;;;;;5014019;28;20025;-70
2023/05/22 09:54:10;;;;;;;11.55;4.20;;;21.80;99.90;;;;;;5013290;28;20056;-71
2023/05/22 09:56:39;;;;;;;12.38;4.10;;;22.10;99.90;;;;;;5031104;28;20159;-71
2023/05/22 09:59:08;;;;;;;8.85;4.28;;;22.30;99.90;;;;;;5031131;28;20036;-71
2023/05/22 10:01:35;;;;;;;10.68;3.63;;;22.40;99.90;;;;;;5011540;28;20459;-72
2023/05/22 10:04:03;;;;;;;12.93;4.05;;;22.80;99.90;;;;;;5011124;28;20034;-70
2023/05/22 10:06:33;;;;;;;8.52;3.90;;;23.30;99.90;;;;;;5011138;28;20112;-71
2023/05/22 10:09:04;;;;;;;9.05;3.88;;;23.10;99.90;;;;;;5011193;28;20117;-69
2023/05/22 10:11:32;;;;;;;12.25;3.97;;;23.20;99.90;;;;;;5011529;28;20033;-69
2023/05/22 10:14:00;;;;;;;13.68;3.70;;;23.10;99.90;;;;;;5010820;28;20034;-70
2023/05/22 10:16:27;;;;;;;19.58;4.20;;;22.90;99.90;;;;;;5011027;28;20096;-71
2023/05/22 10:18:55;;;;;;;19.05;4.32;;;22.60;99.90;;;;;;5027586;28;20212;-72
2023/05/22 10:21:21;;;;;;;13.30;4.20;;;22.40;99.90;;;;;;5015370;28;20100;-70
2023/05/22 10:23:50;;;;;;;11.13;4.43;;;22.20;99.90;;;;;;5034631;28;20041;-71
2023/05/22 10:26:18;;;;;;;11.73;4.22;;;22.50;99.90;;;;;;5035174;28;20071;-69
2023/05/22 10:29:06;;;;;;;14.32;4.43;;;22.60;99.90;;;;;;5034854;28;20017;-72
2023/05/22 10:31:41;;;;;;;11.30;3.80;;;22.40;99.90;;;;;;5015710;28;20034;-70
2023/05/22 10:34:11;;;;;;;12.27;4.28;;;22.50;99.90;;;;;;5015158;28;20032;-70
2023/05/22 10:36:48;;;;;;;16.20;4.57;;;22.70;99.90;;;;;;4997063;28;20466;-71
2023/05/22 10:39:51;;;;;;;10.48;4.13;;;22.90;99.90;;;;;;5015463;28;20358;-69
2023/05/22 10:42:17;;;;;;;15.68;4.00;;;23.20;99.90;;;;;;5015644;28;20470;-71
2023/05/22 10:44:46;;;;;;;15.23;4.05;;;23.60;99.90;;;;;;5014812;28;20030;-69
2023/05/22 10:47:13;;;;;;;13.98;4.25;;;24.10;99.90;;;;;;5014482;28;20073;-69
2023/05/22 10:49:45;;;;;;;18.33;4.00;;;23.90;99.90;;;;;;5014454;28;20420;-69
2023/05/22 10:52:13;;;;;;;15.00;4.15;;;23.90;99.90;;;;;;5014800;28;20030;-70
2023/05/22 10:54:44;;;;;;;11.38;4.25;;;23.90;99.90;;;;;;5014600;28;20061;-69
2023/05/22 10:57:17;;;;;;;9.13;4.05;;;23.80;99.90;;;;;;5014696;28;20044;-68
2023/05/22 10:59:46;;;;;;;10.50;3.88;;;23.40;99.90;;;;;;5014968;28;20021;-69
2023/05/22 11:02:29;;;;;;;11.85;3.85;;;23.20;99.90;;;;;;5014471;28;20041;-68
2023/05/22 11:05:21;;;;;;;11.63;3.97;;;23.50;99.90;;;;;;4995980;28;20371;-70
2023/05/22 11:07:47;;;;;;;8.32;3.70;;;23.70;99.90;;;;;;4996314;28;20112;-69
2023/05/22 11:10:13;;;;;;;10.40;4.05;;;23.30;99.90;;;;;;5014487;28;20030;-70
2023/05/22 11:12:40;;;;;;;7.97;3.80;;;23.50;99.90;;;;;;5014084;28;20042;-68
2023/05/22 11:15:10;;;;;;;16.17;4.32;;;23.70;99.90;;;;;;4996763;28;20033;-69
2023/05/22 11:17:45;;;;;;;8.82;3.92;;;23.20;99.90;;;;;;5014855;28;20108;-70
2023/05/22 11:20:15;;;;;;;15.32;5.10;;;22.90;99.90;;;;;;5014531;28;20014;-69
2023/05/22 11:22:50;;;;;;;10.50;4.70;;;22.80;99.90;;;;;;4996649;28;20040;-70
2023/05/22 11:25:18;;;;;;;13.77;4.35;;;22.80;99.90;;;;;;5014591;28;20030;-70
2023/05/22 11:27:46;;;;;;;12.27;4.57;;;22.70;99.90;;;;;;4996444;28;20138;-71
2023/05/22 11:30:13;;;;;;;14.77;4.63;;;22.70;99.90;;;;;;5014390;28;20593;-70
2023/05/22 11:32:43;;;;;;;11.57;4.50;;;22.60;99.90;;;;;;4996402;28;20482;-70
2023/05/22 11:35:22;;;;;;;12.43;4.38;;;22.40;99.90;;;;;;5014516;28;20077;-70
2023/05/22 11:37:50;;;;;;;12.70;4.10;;;22.80;99.90;;;;;;5014676;28;20034;-71
2023/05/22 11:40:19;;;;;;;16.92;4.20;;;22.90;99.90;;;;;;5014548;28;20036;-69
2023/05/22 11:42:46;;;;;;;18.17;4.65;;;23.10;99.90;;;;;;5014150;28;20508;-70
2023/05/22 11:45:13;;;;;;;13.23;4.53;;;23.50;99.90;;;;;;4997339;28;20026;-71
2023/05/22 11:47:40;;;;;;;15.35;3.97;;;23.40;99.90;;;;;;5014086;28;20026;-70
2023/05/22 11:50:11;;;;;;;16.75;4.63;;;23.60;99.90;;;;;;4996306;28;20108;-69
2023/05/22 11:52:39;;;;;;;16.30;4.65;;;23.20;99.90;;;;;;5014001;28;20364;-71
2023/05/22 11:55:07;;;;;;;12.82;3.92;;;23.20;99.90;;;;;;5014121;28;20055;-69
2023/05/22 11:57:34;;;;;;;13.77;4.10;;;23.60;99.90;;;;;;5013444;28;20057;-71
2023/05/22 12:00:00;;;;;;;13.25;4.03;;;23.70;99.90;;;;;;5012487;28;20061;-71
2023/05/22 12:02:26;;;;;;;16.85;4.28;;;23.50;99.90;;;;;;5014346;28;20033;-69
2023/05/22 12:04:57;;;;;;;18.48;4.15;;;22.90;99.90;;;;;;5031785;28;20017;-70
2023/05/22 12:07:26;;;;;;;14.90;4.15;;;22.70;99.90;;;;;;4996120;28;20046;-70
2023/05/22 12:09:55;;;;;;;15.45;4.55;;;22.40;99.90;;;;;;5014245;28;20049;-70
2023/05/22 12:12:21;;;;;;;14.07;4.32;;;21.90;99.90;;;;;;5014041;28;20490;-70
2023/05/22 12:14:48;;;;;;;13.90;5.13;;;21.60;99.90;;;;;;5014439;28;20084;-70
2023/05/22 12:17:15;;;;;;;16.90;4.55;;;21.40;99.90;;;;;;5015749;28;20120;-70
2023/05/22 12:19:42;;;;;;;18.65;5.70;;;21.30;99.90;;;;;;5013830;28;20030;-69
2023/05/22 12:22:10;;;;;;;17.65;5.10;;;21.10;99.90;;;;;;4996372;28;20426;-69
2023/05/22 12:24:40;;;;;;;14.93;5.15;;;21.10;99.90;;;;;;5014149;28;20057;-70
2023/05/22 12:27:10;;;;;;;13.98;4.68;;;20.90;99.90;;;;;;5014053;28;20041;-69
2023/05/22 12:29:37;;;;;;;20.20;4.63;;;20.90;99.90;;;;;;5012928;28;20030;-68
2023/05/22 12:32:08;;;;;;;15.05;4.95;;;20.60;99.90;;;;;;5013849;28;20521;-67
2023/05/22 12:34:42;;;;;;;19.20;6.20;;;20.60;99.90;;;;;;4994049;28;20037;-67
2023/05/22 12:37:27;;;;;;;29.83;7.03;;;20.40;99.90;;;;;;5009629;28;20026;-66
2023/05/22 12:40:01;;;;;;;23.02;7.00;;;20.10;99.90;;;;;;4997865;28;20022;-67
2023/05/22 12:42:27;;;;;;;17.00;5.80;;;20.10;99.90;;;;;;5013723;28;20037;-65
2023/05/22 12:44:56;;;;;;;16.15;6.13;;;20.10;99.90;;;;;;5014094;28;20041;-65
2023/05/22 12:47:23;;;;;;;17.77;6.07;;;19.80;99.90;;;;;;5013884;28;20018;-65
2023/05/22 12:49:50;;;;;;;19.02;6.05;;;19.90;99.90;;;;;;5014086;28;20117;-65
2023/05/22 12:52:16;;;;;;;;;;;19.90;99.90;;;;;;5014186;28;20502;-66